createdAt,value
2022-11-05T00:00:00.494Z,1004.67
2022-11-05T00:01:00.511Z,1004.70
2022-11-05T00:02:00.598Z,1004.74
2022-11-05T00:03:00.542Z,1004.74
2022-11-05T00:04:00.614Z,1004.76
2022-11-05T00:05:00.562Z,1004.79
2022-11-05T00:06:00.577Z,1004.80
2022-11-05T00:07:00.588Z,1004.81
2022-11-05T00:08:00.603Z,1004.79
2022-11-05T00:09:00.617Z,1004.88
2022-11-05T00:10:00.629Z,1004.93
2022-11-05T00:11:00.643Z,1004.86
2022-11-05T00:12:00.655Z,1004.89
2022-11-05T00:13:00.670Z,1004.92
2022-11-05T00:14:00.682Z,1004.85
2022-11-05T00:15:00.696Z,1004.92
2022-11-05T00:16:00.715Z,1004.91
2022-11-05T00:17:00.724Z,1004.91
2022-11-05T00:18:00.735Z,1004.93
2022-11-05T00:19:00.750Z,1004.91
2022-11-05T00:20:00.763Z,1004.97
2022-11-05T00:21:00.778Z,1004.95
2022-11-05T00:22:00.789Z,1004.94
2022-11-05T00:23:00.803Z,1004.94
2022-11-05T00:24:00.815Z,1004.94
2022-11-05T00:25:00.831Z,1004.96
2022-11-05T00:26:00.845Z,1004.95
2022-11-05T00:27:00.856Z,1005.00
2022-11-05T00:28:00.870Z,1004.96
2022-11-05T00:29:00.883Z,1005.01
2022-11-05T00:30:00.894Z,1005.02
2022-11-05T00:31:00.906Z,1005.02
2022-11-05T00:32:00.921Z,1005.04
2022-11-05T00:33:00.936Z,1005.06
2022-11-05T00:34:00.946Z,1005.05
2022-11-05T00:35:00.965Z,1005.08
2022-11-05T00:36:00.976Z,1005.07
2022-11-05T00:37:00.988Z,1005.09
2022-11-05T00:38:01.001Z,1005.04
2022-11-05T00:39:01.015Z,1005.08
2022-11-05T00:40:01.031Z,1005.06
2022-11-05T00:41:01.041Z,1005.07
2022-11-05T00:42:01.097Z,1005.08
2022-11-05T00:43:01.067Z,1005.08
2022-11-05T00:44:01.081Z,1005.08
2022-11-05T00:45:01.132Z,1005.07
2022-11-05T00:46:01.110Z,1005.10
2022-11-05T00:47:01.121Z,1005.12
2022-11-05T00:48:01.134Z,1005.12
2022-11-05T00:49:01.146Z,1005.14
2022-11-05T00:50:01.159Z,1005.16
2022-11-05T00:51:01.173Z,1005.20
2022-11-05T00:52:01.185Z,1005.17
2022-11-05T00:53:01.208Z,1005.17
2022-11-05T00:54:01.211Z,1005.15
2022-11-05T00:55:01.226Z,1005.19
2022-11-05T00:56:01.242Z,1005.16
2022-11-05T00:57:04.661Z,1005.22
2022-11-05T00:58:01.263Z,1005.19
2022-11-05T00:59:01.277Z,1005.22
2022-11-05T01:00:01.292Z,1005.22
2022-11-05T01:01:01.304Z,1005.25
2022-11-05T01:02:01.433Z,1005.28
2022-11-05T01:03:01.329Z,1005.25
2022-11-05T01:04:01.342Z,1005.24
2022-11-05T01:05:01.355Z,1005.26
2022-11-05T01:06:01.369Z,1005.31
2022-11-05T01:07:01.380Z,1005.31
2022-11-05T01:08:01.400Z,1005.34
2022-11-05T01:09:01.409Z,1005.32
2022-11-05T01:10:01.420Z,1005.34
2022-11-05T01:11:01.436Z,1005.38
2022-11-05T01:12:01.449Z,1005.40
2022-11-05T01:13:01.464Z,1005.41
2022-11-05T01:14:01.474Z,1005.43
2022-11-05T01:15:01.488Z,1005.42
2022-11-05T01:16:01.500Z,1005.38
2022-11-05T01:17:01.514Z,1005.38
2022-11-05T01:18:01.530Z,1005.45
2022-11-05T01:19:01.544Z,1005.45
2022-11-05T01:20:01.557Z,1005.47
2022-11-05T01:21:01.568Z,1005.47
2022-11-05T01:22:01.582Z,1005.47
2022-11-05T01:23:01.593Z,1005.48
2022-11-05T01:24:01.606Z,1005.52
2022-11-05T01:25:01.620Z,1005.49
2022-11-05T01:26:01.632Z,1005.46
2022-11-05T01:27:01.646Z,1005.47
2022-11-05T01:28:01.660Z,1005.44
2022-11-05T01:29:01.749Z,1005.45
2022-11-05T01:30:01.686Z,1005.49
2022-11-05T01:31:01.699Z,1005.50
2022-11-05T01:32:01.716Z,1005.45
2022-11-05T01:33:01.730Z,1005.47
2022-11-05T01:34:01.743Z,1005.45
2022-11-05T01:35:01.756Z,1005.53
2022-11-05T01:36:01.766Z,1005.51
2022-11-05T01:37:01.779Z,1005.50
2022-11-05T01:38:01.792Z,1005.53
2022-11-05T01:39:01.807Z,1005.53
2022-11-05T01:40:01.823Z,1005.53
2022-11-05T01:41:01.834Z,1005.56
2022-11-05T01:42:01.844Z,1005.57
2022-11-05T01:43:01.862Z,1005.58
2022-11-05T01:44:01.872Z,1005.57
2022-11-05T01:45:01.885Z,1005.63
2022-11-05T01:46:01.899Z,1005.62
2022-11-05T01:47:01.911Z,1005.62
2022-11-05T01:48:01.928Z,1005.61
2022-11-05T01:49:03.257Z,1005.60
2022-11-05T01:50:01.970Z,1005.59
2022-11-05T01:51:01.973Z,1005.59
2022-11-05T01:52:01.978Z,1005.58
2022-11-05T01:53:01.992Z,1005.56
2022-11-05T01:54:02.006Z,1005.60
2022-11-05T01:55:02.017Z,1005.59
2022-11-05T01:56:02.034Z,1005.56
2022-11-05T01:57:02.060Z,1005.61
2022-11-05T01:58:02.059Z,1005.67
2022-11-05T01:59:02.070Z,1005.68
2022-11-05T02:00:02.088Z,1005.70
2022-11-05T02:01:02.121Z,1005.73
2022-11-05T02:02:02.260Z,1005.74
2022-11-05T02:03:02.146Z,1005.82
2022-11-05T02:04:02.139Z,1005.79
2022-11-05T02:05:02.153Z,1005.77
2022-11-05T02:06:02.162Z,1005.81
2022-11-05T02:07:02.176Z,1005.80
2022-11-05T02:08:02.192Z,1005.82
2022-11-05T02:09:02.203Z,1005.83
2022-11-05T02:10:02.218Z,1005.82
2022-11-05T02:11:02.230Z,1005.82
2022-11-05T02:12:02.243Z,1005.79
2022-11-05T02:13:02.254Z,1005.83
2022-11-05T02:14:02.267Z,1005.88
2022-11-05T02:15:02.286Z,1005.85
2022-11-05T02:16:02.294Z,1005.88
2022-11-05T02:17:02.309Z,1005.91
2022-11-05T02:18:02.319Z,1005.93
2022-11-05T02:19:02.330Z,1005.97
2022-11-05T02:20:02.344Z,1006.00
2022-11-05T02:21:02.359Z,1005.98
2022-11-05T02:22:02.371Z,1006.01
2022-11-05T02:23:02.384Z,1005.99
2022-11-05T02:24:02.398Z,1006.02
2022-11-05T02:25:02.414Z,1006.00
2022-11-05T02:26:02.424Z,1006.02
2022-11-05T02:27:02.448Z,1006.03
2022-11-05T02:28:02.450Z,1005.99
2022-11-05T02:29:02.461Z,1006.04
2022-11-05T02:30:02.474Z,1006.02
2022-11-05T02:31:02.487Z,1006.04
2022-11-05T02:32:02.506Z,1006.01
2022-11-05T02:33:02.523Z,1006.03
2022-11-05T02:34:02.525Z,1006.02
2022-11-05T02:35:02.540Z,1006.10
2022-11-05T02:36:02.551Z,1006.05
2022-11-05T02:37:02.568Z,1006.06
2022-11-05T02:38:02.579Z,1006.09
2022-11-05T02:39:02.590Z,1006.07
2022-11-05T02:40:02.606Z,1006.13
2022-11-05T02:41:02.616Z,1006.08
2022-11-05T02:42:05.253Z,1006.11
2022-11-05T02:43:02.641Z,1006.12
2022-11-05T02:44:02.656Z,1006.11
2022-11-05T02:45:02.668Z,1006.14
2022-11-05T02:46:02.680Z,1006.15
2022-11-05T02:47:02.693Z,1006.16
2022-11-05T02:48:02.706Z,1006.14
2022-11-05T02:49:02.718Z,1006.17
2022-11-05T02:50:02.734Z,1006.15
2022-11-05T02:51:02.750Z,1006.16
2022-11-05T02:52:02.758Z,1006.21
2022-11-05T02:53:02.775Z,1006.19
2022-11-05T02:54:02.780Z,1006.16
2022-11-05T02:55:02.795Z,1006.20
2022-11-05T02:56:02.812Z,1006.22
2022-11-05T02:57:02.821Z,1006.25
2022-11-05T02:58:02.833Z,1006.29
2022-11-05T02:59:02.846Z,1006.28
2022-11-05T03:00:02.858Z,1006.30
2022-11-05T03:01:02.874Z,1006.27
2022-11-05T03:02:03.058Z,1006.28
2022-11-05T03:03:02.990Z,1006.29
2022-11-05T03:04:02.912Z,1006.33
2022-11-05T03:05:02.934Z,1006.33
2022-11-05T03:06:02.937Z,1006.30
2022-11-05T03:07:02.949Z,1006.34
2022-11-05T03:08:02.962Z,1006.35
2022-11-05T03:09:02.976Z,1006.39
2022-11-05T03:10:02.990Z,1006.36
2022-11-05T03:11:03.002Z,1006.35
2022-11-05T03:12:03.015Z,1006.42
2022-11-05T03:13:03.028Z,1006.38
2022-11-05T03:14:03.039Z,1006.42
2022-11-05T03:15:03.050Z,1006.39
2022-11-05T03:16:03.073Z,1006.41
2022-11-05T03:17:03.077Z,1006.42
2022-11-05T03:18:03.091Z,1006.46
2022-11-05T03:19:03.103Z,1006.42
2022-11-05T03:20:03.114Z,1006.51
2022-11-05T03:21:03.135Z,1006.48
2022-11-05T03:22:03.140Z,1006.50
2022-11-05T03:23:03.154Z,1006.51
2022-11-05T03:24:03.167Z,1006.49
2022-11-05T03:25:03.179Z,1006.50
2022-11-05T03:26:03.192Z,1006.48
2022-11-05T03:27:03.205Z,1006.49
2022-11-05T03:28:03.217Z,1006.55
2022-11-05T03:29:03.231Z,1006.53
2022-11-05T03:30:03.246Z,1006.61
2022-11-05T03:31:03.256Z,1006.59
2022-11-05T03:32:03.268Z,1006.60
2022-11-05T03:33:03.283Z,1006.61
2022-11-05T03:34:03.295Z,1006.58
2022-11-05T03:35:03.307Z,1006.60
2022-11-05T03:36:03.320Z,1006.67
2022-11-05T03:37:03.335Z,1006.67
2022-11-05T03:38:03.345Z,1006.71
2022-11-05T03:39:03.356Z,1006.70
2022-11-05T03:40:03.373Z,1006.73
2022-11-05T03:41:03.386Z,1006.75
2022-11-05T03:42:03.396Z,1006.73
2022-11-05T03:43:03.408Z,1006.74
2022-11-05T03:44:03.421Z,1006.80
2022-11-05T03:45:03.437Z,1006.75
2022-11-05T03:46:03.448Z,1006.79
2022-11-05T03:47:03.462Z,1006.78
2022-11-05T03:48:03.474Z,1006.80
2022-11-05T03:49:03.496Z,1006.85
2022-11-05T03:50:03.498Z,1006.84
2022-11-05T03:51:03.516Z,1006.79
2022-11-05T03:52:03.525Z,1006.85
2022-11-05T03:53:03.539Z,1006.82
2022-11-05T03:54:03.549Z,1006.83
2022-11-05T03:55:03.568Z,1006.87
2022-11-05T03:56:03.577Z,1006.86
2022-11-05T03:57:03.601Z,1006.87
2022-11-05T03:58:03.600Z,1006.86
2022-11-05T03:59:03.615Z,1006.91
2022-11-05T04:00:03.628Z,1006.89
2022-11-05T04:01:03.642Z,1006.94
2022-11-05T04:02:03.743Z,1006.92
2022-11-05T04:03:03.759Z,1006.94
2022-11-05T04:04:03.675Z,1006.95
2022-11-05T04:05:03.688Z,1006.99
2022-11-05T04:06:03.703Z,1007.01
2022-11-05T04:07:03.714Z,1006.93
2022-11-05T04:08:03.726Z,1007.05
2022-11-05T04:09:03.740Z,1007.00
2022-11-05T04:10:03.753Z,1007.04
2022-11-05T04:11:03.767Z,1007.06
2022-11-05T04:12:03.779Z,1007.06
2022-11-05T04:13:03.790Z,1007.14
2022-11-05T04:14:03.803Z,1007.13
2022-11-05T04:15:03.814Z,1007.22
2022-11-05T04:16:03.829Z,1007.21
2022-11-05T04:17:03.847Z,1007.22
2022-11-05T04:18:03.854Z,1007.25
2022-11-05T04:19:03.867Z,1007.26
2022-11-05T04:20:03.879Z,1007.26
2022-11-05T04:21:03.896Z,1007.27
2022-11-05T04:22:03.902Z,1007.26
2022-11-05T04:23:03.917Z,1007.21
2022-11-05T04:24:03.930Z,1007.26
2022-11-05T04:25:03.961Z,1007.24
2022-11-05T04:26:03.968Z,1007.22
2022-11-05T04:27:03.968Z,1007.25
2022-11-05T04:28:03.980Z,1007.26
2022-11-05T04:29:07.746Z,1007.29
2022-11-05T04:30:04.027Z,1007.33
2022-11-05T04:31:04.078Z,1007.31
2022-11-05T04:32:04.030Z,1007.40
2022-11-05T04:33:04.041Z,1007.41
2022-11-05T04:34:04.056Z,1007.38
2022-11-05T04:35:04.065Z,1007.40
2022-11-05T04:36:04.102Z,1007.43
2022-11-05T04:37:04.092Z,1007.40
2022-11-05T04:38:04.105Z,1007.41
2022-11-05T04:39:04.114Z,1007.40
2022-11-05T04:40:04.131Z,1007.41
2022-11-05T04:41:04.142Z,1007.41
2022-11-05T04:42:04.151Z,1007.40
2022-11-05T04:43:04.164Z,1007.40
2022-11-05T04:44:04.177Z,1007.40
2022-11-05T04:45:04.189Z,1007.43
2022-11-05T04:46:04.201Z,1007.45
2022-11-05T04:47:04.216Z,1007.39
2022-11-05T04:48:04.226Z,1007.43
2022-11-05T04:49:04.242Z,1007.42
2022-11-05T04:50:04.256Z,1007.44
2022-11-05T04:51:04.263Z,1007.46
2022-11-05T04:52:04.276Z,1007.42
2022-11-05T04:53:04.288Z,1007.45
2022-11-05T04:54:04.301Z,1007.44
2022-11-05T04:55:04.315Z,1007.50
2022-11-05T04:56:04.324Z,1007.44
2022-11-05T04:57:04.338Z,1007.44
2022-11-05T04:58:04.350Z,1007.42
2022-11-05T04:59:04.362Z,1007.48
2022-11-05T05:00:04.375Z,1007.47
2022-11-05T05:01:04.430Z,1007.46
2022-11-05T05:02:04.494Z,1007.47
2022-11-05T05:03:04.412Z,1007.47
2022-11-05T05:04:04.425Z,1007.48
2022-11-05T05:05:04.435Z,1007.49
2022-11-05T05:06:04.452Z,1007.43
2022-11-05T05:07:04.461Z,1007.42
2022-11-05T05:08:04.470Z,1007.39
2022-11-05T05:09:04.484Z,1007.41
2022-11-05T05:10:04.495Z,1007.39
2022-11-05T05:11:04.508Z,1007.36
2022-11-05T05:12:04.522Z,1007.37
2022-11-05T05:13:04.534Z,1007.35
2022-11-05T05:14:04.547Z,1007.37
2022-11-05T05:15:04.558Z,1007.40
2022-11-05T05:16:04.570Z,1007.39
2022-11-05T05:17:04.583Z,1007.40
2022-11-05T05:18:04.597Z,1007.44
2022-11-05T05:19:04.607Z,1007.42
2022-11-05T05:20:04.624Z,1007.39
2022-11-05T05:21:04.633Z,1007.42
2022-11-05T05:22:04.645Z,1007.41
2022-11-05T05:23:04.655Z,1007.46
2022-11-05T05:24:04.668Z,1007.52
2022-11-05T05:25:04.683Z,1007.54
2022-11-05T05:26:04.692Z,1007.59
2022-11-05T05:27:04.703Z,1007.61
2022-11-05T05:28:04.717Z,1007.66
2022-11-05T05:29:04.732Z,1007.66
2022-11-05T05:30:04.740Z,1007.68
2022-11-05T05:31:04.756Z,1007.70
2022-11-05T05:32:04.767Z,1007.64
2022-11-05T05:33:04.777Z,1007.72
2022-11-05T05:34:04.790Z,1007.71
2022-11-05T05:35:04.801Z,1007.74
2022-11-05T05:36:08.505Z,1007.74
2022-11-05T05:37:04.826Z,1007.77
2022-11-05T05:38:04.840Z,1007.82
2022-11-05T05:39:04.850Z,1007.84
2022-11-05T05:40:04.919Z,1007.80
2022-11-05T05:41:04.874Z,1007.85
2022-11-05T05:42:04.886Z,1007.89
2022-11-05T05:43:04.904Z,1007.89
2022-11-05T05:44:04.911Z,1007.90
2022-11-05T05:45:04.925Z,1007.92
2022-11-05T05:46:04.937Z,1007.96
2022-11-05T05:47:04.947Z,1007.95
2022-11-05T05:48:04.963Z,1007.97
2022-11-05T05:49:09.564Z,1007.99
2022-11-05T05:50:04.989Z,1008.01
2022-11-05T05:51:04.995Z,1007.99
2022-11-05T05:52:05.008Z,1008.02
2022-11-05T05:53:05.023Z,1008.01
2022-11-05T05:54:05.033Z,1007.98
2022-11-05T05:55:05.045Z,1007.97
2022-11-05T05:56:05.056Z,1008.02
2022-11-05T05:57:05.069Z,1007.98
2022-11-05T05:58:05.080Z,1007.98
2022-11-05T05:59:05.091Z,1008.02
2022-11-05T06:00:05.107Z,1008.03
2022-11-05T06:01:05.117Z,1008.05
2022-11-05T06:02:05.231Z,1008.09
2022-11-05T06:03:05.156Z,1008.14
2022-11-05T06:04:05.157Z,1008.16
2022-11-05T06:05:05.165Z,1008.20
2022-11-05T06:06:05.176Z,1008.24
2022-11-05T06:07:05.189Z,1008.25
2022-11-05T06:08:05.204Z,1008.30
2022-11-05T06:09:05.214Z,1008.31
2022-11-05T06:10:05.224Z,1008.32
2022-11-05T06:11:05.298Z,1008.32
2022-11-05T06:12:05.250Z,1008.33
2022-11-05T06:13:05.264Z,1008.32
2022-11-05T06:14:05.274Z,1008.35
2022-11-05T06:15:05.283Z,1008.36
2022-11-05T06:16:05.295Z,1008.36
2022-11-05T06:17:05.308Z,1008.42
2022-11-05T06:18:05.321Z,1008.37
2022-11-05T06:19:05.331Z,1008.43
2022-11-05T06:20:05.345Z,1008.40
2022-11-05T06:21:05.356Z,1008.46
2022-11-05T06:22:05.366Z,1008.45
2022-11-05T06:23:05.380Z,1008.46
2022-11-05T06:24:05.391Z,1008.50
2022-11-05T06:25:05.406Z,1008.48
2022-11-05T06:26:05.414Z,1008.47
2022-11-05T06:27:05.428Z,1008.53
2022-11-05T06:28:05.440Z,1008.56
2022-11-05T06:29:05.451Z,1008.54
2022-11-05T06:30:05.465Z,1008.57
2022-11-05T06:31:05.481Z,1008.60
2022-11-05T06:32:05.487Z,1008.63
2022-11-05T06:33:05.503Z,1008.68
2022-11-05T06:34:05.511Z,1008.68
2022-11-05T06:35:05.520Z,1008.73
2022-11-05T06:36:05.534Z,1008.69
2022-11-05T06:37:05.545Z,1008.76
2022-11-05T06:38:05.561Z,1008.78
2022-11-05T06:39:05.569Z,1008.77
2022-11-05T06:40:05.579Z,1008.80
2022-11-05T06:41:10.064Z,1008.83
2022-11-05T06:42:18.074Z,1008.81
2022-11-05T06:43:05.616Z,1008.81
2022-11-05T06:44:05.628Z,1008.86
2022-11-05T06:45:05.638Z,1008.83
2022-11-05T06:46:05.658Z,1008.90
2022-11-05T06:47:05.664Z,1008.87
2022-11-05T06:48:05.674Z,1008.89
2022-11-05T06:49:05.688Z,1008.88
2022-11-05T06:50:05.698Z,1008.93
2022-11-05T06:51:05.713Z,1008.91
2022-11-05T06:52:05.722Z,1008.93
2022-11-05T06:53:05.735Z,1008.90
2022-11-05T06:54:05.747Z,1008.91
2022-11-05T06:55:05.759Z,1008.92
2022-11-05T06:56:05.770Z,1008.98
2022-11-05T06:57:05.783Z,1009.01
2022-11-05T06:58:05.794Z,1009.02
2022-11-05T06:59:05.807Z,1009.03
2022-11-05T07:00:08.074Z,1009.08
2022-11-05T07:01:05.928Z,1009.10
2022-11-05T07:02:05.892Z,1009.10
2022-11-05T07:03:05.857Z,1009.07
2022-11-05T07:04:05.878Z,1009.06
2022-11-05T07:05:05.879Z,1009.07
2022-11-05T07:06:05.889Z,1009.07
2022-11-05T07:07:05.912Z,1009.15
2022-11-05T07:08:05.927Z,1009.14
2022-11-05T07:09:05.926Z,1009.18
2022-11-05T07:10:05.935Z,1009.19
2022-11-05T07:11:05.947Z,1009.20
2022-11-05T07:12:05.982Z,1009.21
2022-11-05T07:13:08.319Z,1009.24
2022-11-05T07:14:05.984Z,1009.19
2022-11-05T07:15:06.002Z,1009.21
2022-11-05T07:16:06.009Z,1009.27
2022-11-05T07:17:06.023Z,1009.25
2022-11-05T07:18:06.031Z,1009.25
2022-11-05T07:19:06.046Z,1009.29
2022-11-05T07:20:06.057Z,1009.33
2022-11-05T07:21:06.070Z,1009.32
2022-11-05T07:22:06.081Z,1009.34
2022-11-05T07:23:06.093Z,1009.35
2022-11-05T07:24:06.104Z,1009.36
2022-11-05T07:25:06.116Z,1009.35
2022-11-05T07:26:06.129Z,1009.35
2022-11-05T07:27:06.140Z,1009.34
2022-11-05T07:28:06.151Z,1009.37
2022-11-05T07:29:06.166Z,1009.39
2022-11-05T07:30:06.175Z,1009.41
2022-11-05T07:31:06.188Z,1009.43
2022-11-05T07:32:06.199Z,1009.48
2022-11-05T07:33:06.216Z,1009.45
2022-11-05T07:34:06.223Z,1009.48
2022-11-05T07:35:06.238Z,1009.53
2022-11-05T07:36:06.251Z,1009.53
2022-11-05T07:37:06.266Z,1009.53
2022-11-05T07:38:06.271Z,1009.51
2022-11-05T07:39:06.284Z,1009.51
2022-11-05T07:40:06.296Z,1009.50
2022-11-05T07:41:06.307Z,1009.52
2022-11-05T07:42:06.320Z,1009.51
2022-11-05T07:43:06.335Z,1009.48
2022-11-05T07:44:06.344Z,1009.55
2022-11-05T07:45:06.357Z,1009.52
2022-11-05T07:46:09.872Z,1009.54
2022-11-05T07:47:06.384Z,1009.49
2022-11-05T07:48:06.391Z,1009.48
2022-11-05T07:49:06.404Z,1009.53
2022-11-05T07:50:06.414Z,1009.52
2022-11-05T07:51:06.427Z,1009.50
2022-11-05T07:52:06.440Z,1009.49
2022-11-05T07:53:06.471Z,1009.51
2022-11-05T07:54:06.464Z,1009.51
2022-11-05T07:55:06.476Z,1009.55
2022-11-05T07:56:06.494Z,1009.53
2022-11-05T07:57:06.503Z,1009.54
2022-11-05T07:58:06.510Z,1009.57
2022-11-05T07:59:06.523Z,1009.59
2022-11-05T08:00:06.537Z,1009.57
2022-11-05T08:01:06.642Z,1009.58
2022-11-05T08:02:06.810Z,1009.59
2022-11-05T08:03:09.483Z,1009.63
2022-11-05T08:04:06.585Z,1009.60
2022-11-05T08:05:06.595Z,1009.58
2022-11-05T08:06:06.607Z,1009.64
2022-11-05T08:07:06.620Z,1009.67
2022-11-05T08:08:06.631Z,1009.65
2022-11-05T08:09:06.655Z,1009.63
2022-11-05T08:10:06.658Z,1009.69
2022-11-05T08:11:06.677Z,1009.60
2022-11-05T08:12:06.682Z,1009.64
2022-11-05T08:13:06.697Z,1009.68
2022-11-05T08:14:06.705Z,1009.65
2022-11-05T08:15:06.716Z,1009.66
2022-11-05T08:16:06.731Z,1009.71
2022-11-05T08:17:06.740Z,1009.71
2022-11-05T08:18:06.755Z,1009.73
2022-11-05T08:19:06.763Z,1009.77
2022-11-05T08:20:06.777Z,1009.76
2022-11-05T08:21:06.786Z,1009.81
2022-11-05T08:22:06.801Z,1009.78
2022-11-05T08:23:06.811Z,1009.84
2022-11-05T08:24:06.826Z,1009.87
2022-11-05T08:25:07.071Z,1009.90
2022-11-05T08:26:06.849Z,1009.90
2022-11-05T08:27:06.863Z,1009.91
2022-11-05T08:28:06.873Z,1009.92
2022-11-05T08:29:06.886Z,1009.97
2022-11-05T08:30:06.905Z,1010.02
2022-11-05T08:31:06.909Z,1010.01
2022-11-05T08:32:06.923Z,1010.01
2022-11-05T08:33:06.934Z,1010.05
2022-11-05T08:34:06.947Z,1010.06
2022-11-05T08:35:06.963Z,1010.06
2022-11-05T08:36:06.970Z,1010.09
2022-11-05T08:37:06.983Z,1010.12
2022-11-05T08:38:06.995Z,1010.07
2022-11-05T08:39:07.007Z,1010.11
2022-11-05T08:40:07.020Z,1010.12
2022-11-05T08:41:07.032Z,1010.14
2022-11-05T08:42:07.048Z,1010.16
2022-11-05T08:43:07.102Z,1010.18
2022-11-05T08:44:07.071Z,1010.18
2022-11-05T08:45:07.082Z,1010.13
2022-11-05T08:46:07.093Z,1010.16
2022-11-05T08:47:07.104Z,1010.14
2022-11-05T08:48:07.117Z,1010.15
2022-11-05T08:49:07.130Z,1010.18
2022-11-05T08:50:07.141Z,1010.16
2022-11-05T08:51:07.153Z,1010.19
2022-11-05T08:52:07.167Z,1010.20
2022-11-05T08:53:07.185Z,1010.12
2022-11-05T08:54:07.190Z,1010.16
2022-11-05T08:55:07.205Z,1010.20
2022-11-05T08:56:07.219Z,1010.11
2022-11-05T08:57:07.231Z,1010.19
2022-11-05T08:58:07.242Z,1010.20
2022-11-05T08:59:07.253Z,1010.19
2022-11-05T09:00:07.266Z,1010.18
2022-11-05T09:01:07.317Z,1010.25
2022-11-05T09:02:07.374Z,1010.23
2022-11-05T09:03:07.305Z,1010.27
2022-11-05T09:04:07.316Z,1010.30
2022-11-05T09:05:07.329Z,1010.27
2022-11-05T09:06:07.340Z,1010.29
2022-11-05T09:07:07.354Z,1010.28
2022-11-05T09:08:07.366Z,1010.27
2022-11-05T09:09:07.380Z,1010.30
2022-11-05T09:10:07.391Z,1010.29
2022-11-05T09:11:07.406Z,1010.30
2022-11-05T09:12:12.435Z,1010.35
2022-11-05T09:13:09.655Z,1010.34
2022-11-05T09:14:07.439Z,1010.40
2022-11-05T09:15:07.455Z,1010.41
2022-11-05T09:16:07.470Z,1010.42
2022-11-05T09:17:07.481Z,1010.51
2022-11-05T09:18:07.492Z,1010.49
2022-11-05T09:19:07.508Z,1010.49
2022-11-05T09:20:07.517Z,1010.56
2022-11-05T09:21:07.531Z,1010.51
2022-11-05T09:22:07.543Z,1010.56
2022-11-05T09:23:07.671Z,1010.55
2022-11-05T09:24:07.569Z,1010.57
2022-11-05T09:25:07.584Z,1010.56
2022-11-05T09:26:07.596Z,1010.61
2022-11-05T09:27:07.613Z,1010.58
2022-11-05T09:28:07.620Z,1010.60
2022-11-05T09:29:13.158Z,1010.62
2022-11-05T09:30:07.648Z,1010.58
2022-11-05T09:31:07.659Z,1010.61
2022-11-05T09:32:07.674Z,1010.60
2022-11-05T09:33:07.799Z,1010.58
2022-11-05T09:34:07.701Z,1010.58
2022-11-05T09:35:07.711Z,1010.61
2022-11-05T09:36:07.725Z,1010.58
2022-11-05T09:37:07.740Z,1010.62
2022-11-05T09:38:07.752Z,1010.69
2022-11-05T09:39:07.766Z,1010.70
2022-11-05T09:40:07.778Z,1010.72
2022-11-05T09:41:07.799Z,1010.72
2022-11-05T09:42:07.810Z,1010.73
2022-11-05T09:43:07.874Z,1010.76
2022-11-05T09:44:07.829Z,1010.76
2022-11-05T09:45:07.846Z,1010.81
2022-11-05T09:46:07.855Z,1010.74
2022-11-05T09:47:07.868Z,1010.74
2022-11-05T09:48:07.883Z,1010.73
2022-11-05T09:49:07.898Z,1010.79
2022-11-05T09:50:07.909Z,1010.77
2022-11-05T09:51:07.921Z,1010.81
2022-11-05T09:52:07.935Z,1010.79
2022-11-05T09:53:08.085Z,1010.80
2022-11-05T09:54:07.962Z,1010.78
2022-11-05T09:55:07.975Z,1010.77
2022-11-05T09:56:07.989Z,1010.73
2022-11-05T09:57:08.005Z,1010.74
2022-11-05T09:58:08.015Z,1010.73
2022-11-05T09:59:08.028Z,1010.75
2022-11-05T10:00:08.043Z,1010.70
2022-11-05T10:01:08.112Z,1010.71
2022-11-05T10:02:08.219Z,1010.72
2022-11-05T10:03:08.258Z,1010.72
2022-11-05T10:04:08.096Z,1010.74
2022-11-05T10:05:10.022Z,1010.78
2022-11-05T10:06:08.124Z,1010.80
2022-11-05T10:07:08.135Z,1010.81
2022-11-05T10:08:08.149Z,1010.79
2022-11-05T10:09:08.164Z,1010.79
2022-11-05T10:10:08.177Z,1010.81
2022-11-05T10:11:08.189Z,1010.86
2022-11-05T10:12:08.203Z,1010.86
2022-11-05T10:13:08.443Z,1010.85
2022-11-05T10:14:08.230Z,1010.87
2022-11-05T10:15:08.245Z,1010.86
2022-11-05T10:16:08.259Z,1010.82
2022-11-05T10:17:08.271Z,1010.82
2022-11-05T10:18:08.285Z,1010.86
2022-11-05T10:19:08.298Z,1010.86
2022-11-05T10:20:08.312Z,1010.86
2022-11-05T10:21:08.325Z,1010.83
2022-11-05T10:22:08.337Z,1010.85
2022-11-05T10:23:08.443Z,1010.86
2022-11-05T10:24:08.366Z,1010.81
2022-11-05T10:25:08.384Z,1010.88
2022-11-05T10:26:08.395Z,1010.85
2022-11-05T10:27:08.411Z,1010.86
2022-11-05T10:28:08.420Z,1010.92
2022-11-05T10:29:08.438Z,1010.89
2022-11-05T10:30:08.448Z,1010.97
2022-11-05T10:31:08.462Z,1010.92
2022-11-05T10:32:08.477Z,1010.96
2022-11-05T10:33:08.658Z,1010.94
2022-11-05T10:34:08.505Z,1010.94
2022-11-05T10:35:08.515Z,1010.98
2022-11-05T10:36:08.531Z,1010.95
2022-11-05T10:37:08.546Z,1010.93
2022-11-05T10:38:08.559Z,1011.00
2022-11-05T10:39:08.574Z,1010.94
2022-11-05T10:40:08.588Z,1010.97
2022-11-05T10:41:08.601Z,1011.01
2022-11-05T10:42:08.616Z,1011.04
2022-11-05T10:43:08.789Z,1011.04
2022-11-05T10:44:08.647Z,1011.04
2022-11-05T10:45:08.657Z,1011.07
2022-11-05T10:46:08.670Z,1011.09
2022-11-05T10:47:08.684Z,1011.08
2022-11-05T10:48:08.699Z,1011.12
2022-11-05T10:49:08.721Z,1011.09
2022-11-05T10:50:08.728Z,1011.09
2022-11-05T10:51:08.741Z,1011.07
2022-11-05T10:52:08.754Z,1011.13
2022-11-05T10:53:08.902Z,1011.10
2022-11-05T10:54:08.787Z,1011.09
2022-11-05T10:55:08.796Z,1011.11
2022-11-05T10:56:08.811Z,1011.13
2022-11-05T10:57:08.827Z,1011.14
2022-11-05T10:58:08.853Z,1011.15
2022-11-05T10:59:12.144Z,1011.18
2022-11-05T11:00:08.906Z,1011.20
2022-11-05T11:01:08.992Z,1011.21
2022-11-05T11:02:09.084Z,1011.23
2022-11-05T11:03:09.120Z,1011.23
2022-11-05T11:04:08.924Z,1011.16
2022-11-05T11:05:08.939Z,1011.19
2022-11-05T11:06:08.954Z,1011.19
2022-11-05T11:07:08.970Z,1011.14
2022-11-05T11:08:08.982Z,1011.16
2022-11-05T11:09:09.000Z,1011.16
2022-11-05T11:10:09.100Z,1011.20
2022-11-05T11:11:09.024Z,1011.17
2022-11-05T11:12:09.042Z,1011.15
2022-11-05T11:13:09.360Z,1011.16
2022-11-05T11:14:09.067Z,1011.22
2022-11-05T11:15:09.081Z,1011.24
2022-11-05T11:16:09.097Z,1011.24
2022-11-05T11:17:09.110Z,1011.19
2022-11-05T11:18:09.126Z,1011.20
2022-11-05T11:19:09.141Z,1011.18
2022-11-05T11:20:09.192Z,1011.23
2022-11-05T11:21:09.169Z,1011.23
2022-11-05T11:22:09.184Z,1011.20
2022-11-05T11:23:09.487Z,1011.22
2022-11-05T11:24:09.220Z,1011.21
2022-11-05T11:25:09.228Z,1011.21
2022-11-05T11:26:09.240Z,1011.15
2022-11-05T11:27:09.254Z,1011.12
2022-11-05T11:28:09.272Z,1011.16
2022-11-05T11:29:09.285Z,1011.17
2022-11-05T11:30:09.342Z,1011.17
2022-11-05T11:31:09.314Z,1011.16
2022-11-05T11:32:09.330Z,1011.15
2022-11-05T11:33:09.620Z,1011.13
2022-11-05T11:34:09.357Z,1011.17
2022-11-05T11:35:09.371Z,1011.18
2022-11-05T11:36:09.387Z,1011.19
2022-11-05T11:37:09.402Z,1011.19
2022-11-05T11:38:09.416Z,1011.25
2022-11-05T11:39:09.430Z,1011.25
2022-11-05T11:40:10.233Z,1011.25
2022-11-05T11:41:09.461Z,1011.22
2022-11-05T11:42:09.476Z,1011.27
2022-11-05T11:43:09.797Z,1011.22
2022-11-05T11:44:09.506Z,1011.19
2022-11-05T11:45:09.520Z,1011.21
2022-11-05T11:46:14.852Z,1011.19
2022-11-05T11:47:09.550Z,1011.22
2022-11-05T11:48:09.564Z,1011.24
2022-11-05T11:49:09.579Z,1011.31
2022-11-05T11:50:09.595Z,1011.32
2022-11-05T11:51:09.610Z,1011.31
2022-11-05T11:52:09.624Z,1011.35
2022-11-05T11:53:09.928Z,1011.36
2022-11-05T11:54:09.677Z,1011.30
2022-11-05T11:55:09.679Z,1011.38
2022-11-05T11:56:09.687Z,1011.34
2022-11-05T11:57:14.288Z,1011.32
2022-11-05T11:58:09.728Z,1011.31
2022-11-05T11:59:09.741Z,1011.29
2022-11-05T12:00:10.015Z,1011.29
2022-11-05T12:01:09.761Z,1011.33
2022-11-05T12:02:09.923Z,1011.31
2022-11-05T12:03:09.864Z,1011.34
2022-11-05T12:04:09.807Z,1011.34
2022-11-05T12:05:09.823Z,1011.33